Time;durP1;ratioP1;P1;durP2;ratioP2;P2;SDS_P1;SDS_P2;PMS_P1;PMS_P2;Temp;Humidity;BMP_temperature;BMP_pressure;BME280_temperature;BME280_humidity;BME280_pressure;Samples;Min_cycle;Max_cycle;Signal;HPM_P1;HPM_P2
2021/09/08 00:00:27;;;;;;;;;;;;;;;22.86;59.05;101741.22;5035065;28;1033;-64
2021/09/08 00:02:52;;;;;;;;;;;;;;;22.84;58.96;101735.94;5034713;28;823;-65
2021/09/08 00:05:17;;;;;;;;;;;;;;;22.85;58.87;101744.94;5038898;28;1622;-65
2021/09/08 00:07:43;;;;;;;;;;;;;;;22.83;58.80;101736.94;5036960;28;1619;-65
2021/09/08 00:10:08;;;;;;;;;;;;;;;22.81;58.82;101735.41;5054611;28;1041;-65
2021/09/08 00:12:33;;;;;;;;;;;;;;;22.83;58.73;101744.25;5054642;28;1890;-65
2021/09/08 00:14:58;;;;;;;;;;;;;;;22.82;58.69;101734.38;5054837;28;965;-65
2021/09/08 00:17:23;;;;;;;;;;;;;;;22.78;59.15;101730.28;5054623;28;1080;-65
2021/09/08 00:19:48;;;;;;;;;;;;;;;22.79;59.03;101727.41;5034069;28;1502;-65
2021/09/08 00:22:13;;;;;;;;;;;;;;;22.79;58.89;101729.25;5054156;28;1701;-64
2021/09/08 00:24:38;;;;;;;;;;;;;;;22.77;58.93;101731.28;5054425;28;846;-64
2021/09/08 00:27:06;;;;;;;;;;;;;;;22.76;58.96;101726.81;5054234;28;1141;-64
2021/09/08 00:29:31;;;;;;;;;;;;;;;22.74;59.00;101721.56;5055070;28;811;-64
2021/09/08 00:31:56;;;;;;;;;;;;;;;22.75;59.05;101725.16;5054687;28;1910;-63
2021/09/08 00:34:21;;;;;;;;;;;;;;;22.71;59.02;101719.16;5054506;28;957;-66
2021/09/08 00:36:46;;;;;;;;;;;;;;;22.70;59.00;101719.31;5053744;28;1848;-68
2021/09/08 00:39:11;;;;;;;;;;;;;;;22.70;59.08;101713.88;5054324;28;1033;-68
2021/09/08 00:41:36;;;;;;;;;;;;;;;22.67;59.24;101709.63;5054587;28;949;-66
2021/09/08 00:44:01;;;;;;;;;;;;;;;22.65;59.04;101711.63;5053035;28;1753;-66
2021/09/08 00:46:26;;;;;;;;;;;;;;;22.65;59.11;101710.78;5054249;28;1116;-65
2021/09/08 00:48:51;;;;;;;;;;;;;;;22.63;59.04;101704.66;5054501;28;1025;-67
2021/09/08 00:51:16;;;;;;;;;;;;;;;22.60;59.10;101707.66;5042558;28;1732;-66
2021/09/08 00:53:41;;;;;;;;;;;;;;;22.60;59.22;101707.66;5034326;28;1960;-67
2021/09/08 00:56:06;;;;;;;;;;;;;;;22.61;58.68;101698.50;5034594;28;803;-68
2021/09/08 00:58:32;;;;;;;;;;;;;;;22.59;59.02;101708.69;5034565;28;1115;-68
2021/09/08 01:00:57;;;;;;;;;;;;;;;22.58;58.97;101701.53;5034564;28;923;-69
2021/09/08 01:03:22;;;;;;;;;;;;;;;22.55;58.93;101700.00;5034110;28;886;-68
2021/09/08 01:05:47;;;;;;;;;;;;;;;22.54;59.01;101692.88;5034859;28;1048;-68
2021/09/08 01:08:12;;;;;;;;;;;;;;;22.54;58.99;101686.59;5047755;28;1756;-68
2021/09/08 01:10:37;;;;;;;;;;;;;;;22.52;59.08;101686.75;5057773;28;1888;-68
2021/09/08 01:13:02;;;;;;;;;;;;;;;22.52;59.03;101684.88;5040145;28;1945;-68
2021/09/08 01:15:28;;;;;;;;;;;;;;;22.50;58.80;101678.75;5057817;28;844;-68
2021/09/08 01:17:53;;;;;;;;;;;;;;;22.49;59.04;101674.31;5057976;28;799;-68
2021/09/08 01:20:18;;;;;;;;;;;;;;;22.50;58.86;101675.16;5058040;28;1077;-68
2021/09/08 01:22:43;;;;;;;;;;;;;;;22.46;58.96;101671.91;5057893;28;862;-67
2021/09/08 01:25:08;;;;;;;;;;;;;;;22.45;58.91;101672.91;5049473;28;1901;-64
2021/09/08 01:27:33;;;;;;;;;;;;;;;22.46;58.99;101677.34;5037717;28;1158;-64
2021/09/08 01:29:58;;;;;;;;;;;;;;;22.43;58.76;101666.78;5037635;28;831;-64
2021/09/08 01:32:23;;;;;;;;;;;;;;;22.42;58.89;101680.50;5037674;28;1961;-64
2021/09/08 01:34:48;;;;;;;;;;;;;;;22.41;58.82;101674.22;5037209;28;1871;-64
2021/09/08 01:37:13;;;;;;;;;;;;;;;22.41;58.96;101674.22;5038816;28;1934;-63
2021/09/08 01:39:38;;;;;;;;;;;;;;;22.41;58.86;101668.78;5037396;28;858;-63
2021/09/08 01:42:03;;;;;;;;;;;;;;;22.40;58.98;101668.94;5037631;28;1005;-63
2021/09/08 01:44:29;;;;;;;;;;;;;;;22.39;59.32;101673.53;5045356;28;1803;-64
2021/09/08 01:46:54;;;;;;;;;;;;;;;22.38;59.04;101666.41;5057310;28;929;-64
2021/09/08 01:49:19;;;;;;;;;;;;;;;22.37;59.15;101658.44;5050044;28;1816;-64
2021/09/08 01:51:44;;;;;;;;;;;;;;;22.37;58.76;101653.00;5037089;28;1951;-62
2021/09/08 01:54:09;;;;;;;;;;;;;;;22.35;58.50;101655.88;5037320;28;997;-62
2021/09/08 01:56:34;;;;;;;;;;;;;;;22.31;58.99;101659.91;5037401;28;1013;-71
2021/09/08 01:58:59;;;;;;;;;;;;;;;22.31;58.84;101657.19;5037118;28;874;-71
2021/09/08 02:01:25;;;;;;;;;;;;;;;22.32;58.79;101652.59;5037238;28;1009;-72
2021/09/08 02:03:50;;;;;;;;;;;;;;;22.32;58.66;101658.03;5038325;28;1927;-71
2021/09/08 02:06:15;;;;;;;;;;;;;;;22.30;58.70;101658.19;5037186;28;1634;-71
2021/09/08 02:08:40;;;;;;;;;;;;;;;22.29;58.67;101661.91;5036928;28;1878;-70
2021/09/08 02:11:06;;;;;;;;;;;;;;;22.29;58.88;101666.50;5037071;28;882;-70
2021/09/08 02:13:31;;;;;;;;;;;;;;;22.27;58.71;101661.22;5036996;28;1898;-67
2021/09/08 02:15:56;;;;;;;;;;;;;;;22.27;58.46;101650.34;5036771;28;981;-65
2021/09/08 02:18:21;;;;;;;;;;;;;;;22.27;58.41;101654.94;5035647;28;1602;-65
2021/09/08 02:20:46;;;;;;;;;;;;;;;22.25;58.64;101655.06;5056308;28;1777;-65
2021/09/08 02:23:11;;;;;;;;;;;;;;;22.23;58.62;101646.22;5056302;28;1778;-65
2021/09/08 02:25:36;;;;;;;;;;;;;;;22.18;58.48;101643.16;5056434;28;1057;-66
2021/09/08 02:28:02;;;;;;;;;;;;;;;22.19;58.62;101642.16;5056278;28;1271;-65
2021/09/08 02:30:27;;;;;;;;;;;;;;;22.18;58.54;101645.88;5056717;28;937;-66
2021/09/08 02:32:52;;;;;;;;;;;;;;;22.18;58.62;101654.00;5056554;28;1975;-66
2021/09/08 02:35:17;;;;;;;;;;;;;;;22.15;58.41;101652.47;5056502;28;1190;-65
2021/09/08 02:37:42;;;;;;;;;;;;;;;22.14;58.40;101631.75;5038595;28;1689;-65
2021/09/08 02:40:07;;;;;;;;;;;;;;;22.14;58.08;101633.59;5036171;28;934;-64
2021/09/08 02:42:32;;;;;;;;;;;;;;;22.08;58.26;101631.50;5036480;28;866;-64
2021/09/08 02:44:57;;;;;;;;;;;;;;;22.08;58.18;101636.94;5036552;28;1879;-63
2021/09/08 02:47:22;;;;;;;;;;;;;;;22.01;58.23;101639.44;5036197;28;827;-64
2021/09/08 02:49:47;;;;;;;;;;;;;;;22.06;58.07;101638.94;5018373;28;1291;-63
2021/09/08 02:52:12;;;;;;;;;;;;;;;22.09;58.28;101633.22;5018455;28;1894;-63
2021/09/08 02:54:37;;;;;;;;;;;;;;;22.06;58.14;101628.94;5053843;28;2252;-63
2021/09/08 02:57:03;;;;;;;;;;;;;;;22.03;58.18;101629.28;5055822;28;1151;-63
2021/09/08 02:59:28;;;;;;;;;;;;;;;22.02;58.06;101634.84;5055808;28;823;-67
2021/09/08 03:01:53;;;;;;;;;;;;;;;22.05;57.93;101638.09;5056116;28;1076;-69
2021/09/08 03:04:18;;;;;;;;;;;;;;;22.05;58.21;101637.22;5055445;28;1772;-69
2021/09/08 03:06:43;;;;;;;;;;;;;;;22.05;58.17;101634.53;5055810;28;871;-69
2021/09/08 03:09:08;;;;;;;;;;;;;;;22.04;58.25;101635.53;5055765;28;807;-69
2021/09/08 03:11:33;;;;;;;;;;;;;;;22.03;58.25;101636.56;5039256;28;1898;-69
2021/09/08 03:13:58;;;;;;;;;;;;;;;22.03;58.22;101631.13;5055826;28;870;-69
2021/09/08 03:16:23;;;;;;;;;;;;;;;22.02;58.25;101633.00;5055462;28;835;-68
2021/09/08 03:18:49;;;;;;;;;;;;;;;22.01;58.20;101635.84;5055626;28;839;-69
2021/09/08 03:21:14;;;;;;;;;;;;;;;22.00;58.31;101628.72;5054318;28;1634;-68
2021/09/08 03:23:39;;;;;;;;;;;;;;;21.98;58.28;101636.97;5037966;28;1363;-68
2021/09/08 03:26:04;;;;;;;;;;;;;;;21.98;58.50;101633.41;5055142;28;1305;-68
2021/09/08 03:28:29;;;;;;;;;;;;;;;21.96;58.25;101628.13;5038932;28;1834;-68
2021/09/08 03:30:54;;;;;;;;;;;;;;;21.96;58.32;101628.13;5035681;28;1088;-68
2021/09/08 03:33:19;;;;;;;;;;;;;;;21.96;58.15;101627.28;5035265;28;2043;-68
2021/09/08 03:35:44;;;;;;;;;;;;;;;21.95;58.19;101631.00;5035285;28;835;-68
2021/09/08 03:38:09;;;;;;;;;;;;;;;21.92;58.17;101625.88;5035531;28;853;-68
2021/09/08 03:40:34;;;;;;;;;;;;;;;21.93;58.38;101624.88;5044543;28;1805;-68
2021/09/08 03:42:59;;;;;;;;;;;;;;;21.91;58.64;101629.59;5055182;28;859;-68
2021/09/08 03:45:25;;;;;;;;;;;;;;;21.91;58.44;101624.16;5055170;28;1232;-63
2021/09/08 03:47:50;;;;;;;;;;;;;;;21.89;58.08;101618.91;5055267;28;1024;-63
2021/09/08 03:50:15;;;;;;;;;;;;;;;21.88;58.50;101613.63;5055237;28;962;-63
2021/09/08 03:52:40;;;;;;;;;;;;;;;21.88;58.59;101608.19;5054909;28;1910;-64
2021/09/08 03:55:05;;;;;;;;;;;;;;;21.88;58.43;101605.47;5049480;28;1865;-64
2021/09/08 03:57:30;;;;;;;;;;;;;;;21.87;58.29;101603.78;5034840;28;858;-65
2021/09/08 03:59:55;;;;;;;;;;;;;;;21.85;58.57;101603.09;5035083;28;862;-66
2021/09/08 04:02:21;;;;;;;;;;;;;;;21.82;58.49;101605.13;5034936;28;1046;-68
2021/09/08 04:04:46;;;;;;;;;;;;;;;21.82;58.18;101596.97;5034994;28;914;-66
2021/09/08 04:07:11;;;;;;;;;;;;;;;21.73;58.27;101589.75;5034950;28;827;-66
2021/09/08 04:09:36;;;;;;;;;;;;;;;21.77;58.19;101590.28;5034920;28;1037;-64
2021/09/08 04:12:01;;;;;;;;;;;;;;;21.78;58.39;101590.13;5039669;28;1981;-64
2021/09/08 04:14:26;;;;;;;;;;;;;;;21.77;58.50;101591.16;5053974;28;1942;-65
2021/09/08 04:16:52;;;;;;;;;;;;;;;21.78;58.01;101582.00;5054664;28;993;-64
2021/09/08 04:19:17;;;;;;;;;;;;;;;21.78;58.31;101592.00;5054728;28;926;-64
2021/09/08 04:21:42;;;;;;;;;;;;;;;21.76;58.06;101584.00;5054642;28;784;-64
2021/09/08 04:24:07;;;;;;;;;;;;;;;21.76;58.39;101586.72;5054509;28;784;-64
2021/09/08 04:26:32;;;;;;;;;;;;;;;21.74;58.49;101586.03;5054329;28;1154;-64
2021/09/08 04:28:57;;;;;;;;;;;;;;;21.71;58.29;101580.91;5050464;28;1886;-64
2021/09/08 04:31:22;;;;;;;;;;;;;;;21.71;58.39;101570.03;5034565;28;982;-63
2021/09/08 04:33:47;;;;;;;;;;;;;;;21.71;58.49;101578.19;5034467;28;1906;-64
2021/09/08 04:36:12;;;;;;;;;;;;;;;21.70;58.42;101583.75;5034560;28;811;-63
2021/09/08 04:38:38;;;;;;;;;;;;;;;21.69;58.26;101582.06;5034718;28;1624;-63
2021/09/08 04:41:03;;;;;;;;;;;;;;;21.68;58.14;101581.19;5035550;28;784;-64
2021/09/08 04:43:28;;;;;;;;;;;;;;;21.67;58.28;101584.09;5038693;28;997;-65
2021/09/08 04:45:54;;;;;;;;;;;;;;;21.66;59.02;101582.38;5039007;28;1790;-66
2021/09/08 04:48:19;;;;;;;;;;;;;;;21.64;60.53;101581.69;5039987;28;1737;-63
2021/09/08 04:50:45;;;;;;;;;;;;;;;21.62;60.28;101587.25;5042972;28;1583;-65
2021/09/08 04:53:10;;;;;;;;;;;;;;;21.56;60.20;101587.84;5041909;28;1902;-65
2021/09/08 04:55:35;;;;;;;;;;;;;;;21.56;60.50;101582.44;5041183;28;1367;-62
2021/09/08 04:58:00;;;;;;;;;;;;;;;21.58;60.38;101575.00;5020481;28;1326;-65
2021/09/08 05:00:25;;;;;;;;;;;;;;;21.62;60.19;101579.13;5039332;28;1787;-66
2021/09/08 05:02:50;;;;;;;;;;;;;;;21.59;60.16;101576.72;5038211;28;1017;-67
2021/09/08 05:05:15;;;;;;;;;;;;;;;21.63;59.73;101571.84;5037997;28;902;-67
2021/09/08 05:07:40;;;;;;;;;;;;;;;21.72;59.17;101571.75;5042689;28;1412;-66
2021/09/08 05:10:05;;;;;;;;;;;;;;;21.78;60.57;101565.72;5045797;28;1420;-67
2021/09/08 05:12:30;;;;;;;;;;;;;;;21.83;60.07;101567.97;5047192;28;1889;-67
2021/09/08 05:14:55;;;;;;;;;;;;;;;21.85;61.83;101570.53;5049698;28;1390;-70
2021/09/08 05:17:20;;;;;;;;;;;;;;;21.77;63.57;101565.88;5046601;28;1627;-70
2021/09/08 05:19:45;;;;;;;;;;;;;;;21.75;62.71;101570.59;5045416;28;1618;-70
2021/09/08 05:22:11;;;;;;;;;;;;;;;21.74;62.72;101566.19;5046504;28;1814;-70
2021/09/08 05:24:36;;;;;;;;;;;;;;;21.75;61.94;101566.03;5037953;28;1721;-70
2021/09/08 05:27:01;;;;;;;;;;;;;;;21.74;61.00;101564.31;5040149;28;1641;-70
2021/09/08 05:29:26;;;;;;;;;;;;;;;21.79;60.75;101561.16;5046596;28;1841;-70
2021/09/08 05:31:51;;;;;;;;;;;;;;;21.78;60.35;101568.44;5050746;28;2371;-70
2021/09/08 05:34:16;;;;;;;;;;;;;;;21.78;60.24;101563.00;5047294;28;1994;-70
2021/09/08 05:36:41;;;;;;;;;;;;;;;21.84;59.72;101566.97;5046945;28;1396;-70
2021/09/08 05:39:06;;;;;;;;;;;;;;;21.89;59.17;101566.47;5030309;28;1739;-70
2021/09/08 05:41:31;;;;;;;;;;;;;;;21.88;59.36;101564.78;5042809;28;1966;-70
2021/09/08 05:43:56;;;;;;;;;;;;;;;21.90;59.12;101562.75;5046312;28;1577;-70
2021/09/08 05:46:21;;;;;;;;;;;;;;;21.91;59.07;101559.91;5046830;28;1723;-71
2021/09/08 05:48:46;;;;;;;;;;;;;;;21.92;58.96;101563.47;5050458;28;1823;-70
2021/09/08 05:51:11;;;;;;;;;;;;;;;21.98;58.32;101554.72;5045410;28;1604;-70
2021/09/08 05:53:36;;;;;;;;;;;;;;;21.99;58.51;101559.13;5045995;28;1941;-70
2021/09/08 05:56:02;;;;;;;;;;;;;;;22.01;58.70;101566.16;5056759;28;886;-70
2021/09/08 05:58:27;;;;;;;;;;;;;;;22.01;58.13;101559.84;5056977;28;823;-70
2021/09/08 06:00:52;;;;;;;;;;;;;;;22.07;58.15;101564.63;5057335;28;878;-70
2021/09/08 06:03:17;;;;;;;;;;;;;;;22.04;58.50;101560.38;5048104;28;1350;-70
2021/09/08 06:05:42;;;;;;;;;;;;;;;22.04;58.34;101559.53;5042034;28;1331;-70
2021/09/08 06:08:07;;;;;;;;;;;;;;;22.06;58.49;101554.78;5052407;28;1557;-70
2021/09/08 06:10:32;;;;;;;;;;;;;;;22.09;58.93;101559.91;5029851;28;1561;-70
2021/09/08 06:12:57;;;;;;;;;;;;;;;22.14;58.80;101565.72;5054895;28;1955;-70
2021/09/08 06:15:23;;;;;;;;;;;;;;;22.19;58.76;101567.97;5057130;28;1230;-71
2021/09/08 06:17:48;;;;;;;;;;;;;;;22.05;58.52;101562.06;5057129;28;842;-70
2021/09/08 06:20:13;;;;;;;;;;;;;;;22.01;58.21;101562.56;5056937;28;803;-71
2021/09/08 06:22:38;;;;;;;;;;;;;;;21.88;58.19;101560.19;5056455;28;1906;-70
2021/09/08 06:25:03;;;;;;;;;;;;;;;22.02;58.62;101553.44;5054583;28;1555;-71
2021/09/08 06:27:28;;;;;;;;;;;;;;;22.15;58.45;101556.56;5056850;28;1777;-71
2021/09/08 06:29:53;;;;;;;;;;;;;;;22.16;57.92;101551.00;5056941;28;851;-70
2021/09/08 06:32:19;;;;;;;;;;;;;;;22.21;58.08;101555.97;5056552;28;1913;-70
2021/09/08 06:34:48;;;;;;;;;;;;;;;22.20;57.89;101554.25;5056509;28;845;-71
2021/09/08 06:37:13;;;;;;;;;;;;;;;22.23;57.98;101551.19;5057174;28;787;-71
2021/09/08 06:39:38;;;;;;;;;;;;;;;22.24;57.60;101539.31;5054766;28;2015;-70
2021/09/08 06:42:04;;;;;;;;;;;;;;;22.33;57.48;101549.25;5036695;28;1048;-70
2021/09/08 06:44:29;;;;;;;;;;;;;;;22.33;57.59;101545.69;5036705;28;796;-71
2021/09/08 06:46:54;;;;;;;;;;;;;;;22.40;57.95;101541.28;5040477;28;1734;-71
2021/09/08 06:49:19;;;;;;;;;;;;;;;22.38;57.63;101541.50;5030755;28;1416;-71
2021/09/08 06:51:44;;;;;;;;;;;;;;;22.36;57.40;101540.78;5042106;28;1890;-71
2021/09/08 06:54:09;;;;;;;;;;;;;;;22.17;56.94;101532.84;5051304;28;1731;-71
2021/09/08 06:56:34;;;;;;;;;;;;;;;22.24;56.80;101533.03;5040529;28;1646;-71
2021/09/08 06:58:59;;;;;;;;;;;;;;;22.37;57.59;101534.34;5035848;28;1256;-71
2021/09/08 07:01:24;;;;;;;;;;;;;;;22.47;57.14;101531.50;5036045;28;1940;-71
2021/09/08 07:03:49;;;;;;;;;;;;;;;22.44;56.60;101527.25;5035130;28;875;-71
2021/09/08 07:06:14;;;;;;;;;;;;;;;22.30;57.04;101527.84;5036041;28;827;-71
2021/09/08 07:08:39;;;;;;;;;;;;;;;22.42;56.79;101531.13;5035883;28;910;-71
2021/09/08 07:11:05;;;;;;;;;;;;;;;22.48;56.59;101528.63;5035786;28;901;-71
2021/09/08 07:13:30;;;;;;;;;;;;;;;22.55;56.15;101531.56;5037378;28;1894;-71
2021/09/08 07:15:55;;;;;;;;;;;;;;;22.60;56.30;101531.94;5055609;28;1807;-71
2021/09/08 07:18:20;;;;;;;;;;;;;;;22.64;56.14;101527.88;5055627;28;818;-70
2021/09/08 07:20:45;;;;;;;;;;;;;;;;;;5055475;28;791;-71
2021/09/08 07:23:10;;;;;;;;;;;;;;;22.60;55.99;101525.63;5055558;28;810;-71
2021/09/08 07:25:35;;;;;;;;;;;;;;;22.70;55.82;101520.94;5055372;28;792;-70
2021/09/08 07:28:00;;;;;;;;;;;;;;;22.73;55.76;101523.34;5055482;28;1286;-70
2021/09/08 07:30:25;;;;;;;;;;;;;;;22.44;56.52;101523.69;5053860;28;1873;-70
2021/09/08 07:32:51;;;;;;;;;;;;;;;22.41;56.15;101515.84;5041272;28;1919;-70
2021/09/08 07:35:16;;;;;;;;;;;;;;;22.41;56.31;101513.97;5035426;28;1760;-70
2021/09/08 07:37:41;;;;;;;;;;;;;;;22.36;56.19;101510.91;5035343;28;1045;-70
2021/09/08 07:40:06;;;;;;;;;;;;;;;22.35;56.33;101506.50;5035256;28;891;-70
2021/09/08 07:42:31;;;;;;;;;;;;;;;22.23;56.38;101505.03;5042583;28;1779;-70
2021/09/08 07:44:56;;;;;;;;;;;;;;;22.31;56.21;101501.53;5053567;28;1326;-70
2021/09/08 07:47:21;;;;;;;;;;;;;;;22.31;56.31;101501.53;5053976;28;1566;-70
2021/09/08 07:49:46;;;;;;;;;;;;;;;22.49;55.72;101489.59;5055115;28;831;-70
2021/09/08 07:52:11;;;;;;;;;;;;;;;22.54;55.84;101499.13;5055214;28;1955;-70
2021/09/08 07:54:37;;;;;;;;;;;;;;;22.49;55.97;101494.19;5055110;28;858;-70
2021/09/08 07:57:02;;;;;;;;;;;;;;;22.52;55.68;101493.88;5051373;28;1833;-70
2021/09/08 07:59:27;;;;;;;;;;;;;;;22.52;56.23;101489.28;5017097;28;1103;-70
2021/09/08 08:01:52;;;;;;;;;;;;;;;22.50;56.28;101496.75;5052351;28;1883;-70
2021/09/08 08:04:18;;;;;;;;;;;;;;;22.54;56.23;101494.56;5054440;28;1831;-70
2021/09/08 08:06:43;;;;;;;;;;;;;;;22.51;56.34;101495.72;5053219;28;1275;-70
2021/09/08 08:09:08;;;;;;;;;;;;;;;22.55;56.41;101487.25;5040240;28;1424;-70
2021/09/08 08:11:33;;;;;;;;;;;;;;;22.55;56.42;101498.13;5034767;28;1383;-70
2021/09/08 08:13:58;;;;;;;;;;;;;;;22.55;56.36;101489.97;5020030;28;1960;-70
2021/09/08 08:16:23;;;;;;;;;;;;;;;22.61;56.14;101487.44;5054609;28;1758;-70
2021/09/08 08:18:48;;;;;;;;;;;;;;;22.68;56.29;101493.09;5054869;28;998;-70
2021/09/08 08:21:13;;;;;;;;;;;;;;;22.69;56.25;101508.38;5054859;28;823;-70
2021/09/08 08:23:38;;;;;;;;;;;;;;;22.60;56.32;101501.19;5054628;28;1037;-71
2021/09/08 08:26:03;;;;;;;;;;;;;;;22.71;56.23;101495.50;5054660;28;1002;-70
2021/09/08 08:28:30;;;;;;;;;;;;;;;22.59;56.21;101499.47;5054303;28;1397;-70
2021/09/08 08:30:55;;;;;;;;;;;;;;;22.46;56.20;101499.94;5051331;28;1970;-70
2021/09/08 08:33:20;;;;;;;;;;;;;;;22.58;56.30;101495.91;5034474;28;1914;-70
2021/09/08 08:35:46;;;;;;;;;;;;;;;22.62;56.53;101488.28;5034632;28;1897;-70
2021/09/08 08:38:11;;;;;;;;;;;;;;;22.73;56.35;101496.19;5045363;28;1387;-70
2021/09/08 08:40:36;;;;;;;;;;;;;;;22.69;56.32;101500.22;5054456;28;811;-70
2021/09/08 08:43:01;;;;;;;;;;;;;;;22.50;56.62;101494.03;5055131;28;1001;-70
2021/09/08 08:45:26;;;;;;;;;;;;;;;22.63;56.06;101487.28;5055099;28;792;-70
2021/09/08 08:47:51;;;;;;;;;;;;;;;22.75;56.09;101489.53;5052292;28;1873;-70
2021/09/08 08:50:16;;;;;;;;;;;;;;;22.62;55.83;101493.72;5034598;28;895;-70
2021/09/08 08:52:41;;;;;;;;;;;;;;;22.72;56.27;101494.47;5034959;28;1890;-70
2021/09/08 08:55:06;;;;;;;;;;;;;;;22.69;55.82;101486.66;5016999;28;901;-70
2021/09/08 08:57:31;;;;;;;;;;;;;;;22.49;56.03;101500.47;5034705;28;2041;-70
2021/09/08 08:59:56;;;;;;;;;;;;;;;22.31;56.42;101496.97;5017398;28;901;-70
2021/09/08 09:02:21;;;;;;;;;;;;;;;22.23;56.11;101483.31;5035303;28;1076;-70
2021/09/08 09:04:47;;;;;;;;;;;;;;;22.33;56.07;101483.22;5019329;28;1774;-70
2021/09/08 09:07:12;;;;;;;;;;;;;;;22.37;55.92;101484.59;5052476;28;1915;-70
2021/09/08 09:09:37;;;;;;;;;;;;;;;22.46;55.55;101479.06;5054522;28;1001;-70
2021/09/08 09:12:02;;;;;;;;;;;;;;;22.40;55.71;101481.53;5054435;28;1902;-70
2021/09/08 09:14:27;;;;;;;;;;;;;;;22.49;55.65;101477.88;5054440;28;846;-70
2021/09/08 09:16:52;;;;;;;;;;;;;;;22.52;55.42;101486.56;5054811;28;989;-70
2021/09/08 09:19:17;;;;;;;;;;;;;;;22.47;55.62;101474.47;5054637;28;914;-70
2021/09/08 09:21:43;;;;;;;;;;;;;;;22.61;55.40;101465.72;5052636;28;2397;-70
2021/09/08 09:24:08;;;;;;;;;;;;;;;22.52;55.68;101472.97;5051826;28;2047;-70
2021/09/08 09:26:33;;;;;;;;;;;;;;;22.50;55.73;101466.84;5054702;28;1717;-70
2021/09/08 09:28:58;;;;;;;;;;;;;;;22.66;55.31;101459.78;5057544;28;823;-70
2021/09/08 09:31:23;;;;;;;;;;;;;;;22.80;55.13;101462.75;5057511;28;1013;-70
2021/09/08 09:33:48;;;;;;;;;;;;;;;22.74;55.47;101465.28;5057510;28;1981;-70
2021/09/08 09:36:14;;;;;;;;;;;;;;;22.70;55.92;101466.59;5055865;28;1796;-70
2021/09/08 09:38:39;;;;;;;;;;;;;;;22.60;55.51;101458.56;5057431;28;847;-70
2021/09/08 09:41:04;;;;;;;;;;;;;;;22.55;56.21;101454.66;5039179;28;1963;-70
2021/09/08 09:43:29;;;;;;;;;;;;;;;22.64;55.75;101461.81;5037363;28;1860;-70
2021/09/08 09:45:54;;;;;;;;;;;;;;;22.66;55.83;101460.66;5037355;28;926;-70
2021/09/08 09:48:19;;;;;;;;;;;;;;;22.58;56.06;101451.59;5037413;28;1064;-70
2021/09/08 09:50:46;;;;;;;;;;;;;;;22.58;55.97;101451.59;5037672;28;986;-70
2021/09/08 09:53:11;;;;;;;;;;;;;;;22.56;56.17;101456.38;5037462;28;1889;-71
2021/09/08 09:55:36;;;;;;;;;;;;;;;22.61;56.24;101454.00;5037421;28;903;-71
2021/09/08 09:58:01;;;;;;;;;;;;;;;22.53;56.36;101446.66;5052167;28;1737;-71
2021/09/08 10:00:28;;;;;;;;;;;;;;;22.58;56.32;101446.16;5057081;28;1045;-71
2021/09/08 10:02:53;;;;;;;;;;;;;;;22.62;56.28;101436.66;5057330;28;775;-71
2021/09/08 10:05:18;;;;;;;;;;;;;;;22.64;56.43;101442.81;5048424;28;1765;-71
2021/09/08 10:07:43;;;;;;;;;;;;;;;22.61;56.62;101438.53;5039323;28;1964;-71
2021/09/08 10:10:08;;;;;;;;;;;;;;;22.67;56.42;101435.19;5057734;28;899;-71
2021/09/08 10:12:33;;;;;;;;;;;;;;;22.79;56.06;101435.75;5057504;28;1951;-71
2021/09/08 10:15:00;;;;;;;;;;;;;;;22.79;56.21;101433.03;5043928;28;1865;-71
2021/09/08 10:17:25;;;;;;;;;;;;;;;22.82;56.16;101433.56;5019240;28;2081;-71
2021/09/08 10:19:50;;;;;;;;;;;;;;;22.75;55.69;101437.91;5036796;28;855;-71
2021/09/08 10:22:16;;;;;;;;;;;;;;;22.70;56.15;101431.28;5036867;28;1755;-71
2021/09/08 10:24:41;;;;;;;;;;;;;;;22.82;55.48;101419.13;5018900;28;839;-71
2021/09/08 10:27:06;;;;;;;;;;;;;;;22.83;55.66;101415.38;5036786;28;1248;-71
2021/09/08 10:29:31;;;;;;;;;;;;;;;22.84;55.31;101417.94;5036524;28;985;-71
2021/09/08 10:31:56;;;;;;;;;;;;;;;22.81;55.63;101406.53;5052037;28;1914;-71
2021/09/08 10:34:21;;;;;;;;;;;;;;;22.81;55.33;101423.72;5055054;28;1729;-71
2021/09/08 10:36:47;;;;;;;;;;;;;;;22.77;54.87;101411.44;5037974;28;1693;-71
2021/09/08 10:39:12;;;;;;;;;;;;;;;22.77;54.86;101413.31;5035901;28;838;-71
2021/09/08 10:41:37;;;;;;;;;;;;;;;22.73;54.63;101410.06;5042318;28;1276;-71
2021/09/08 10:44:02;;;;;;;;;;;;;;;22.77;54.83;101399.72;5039522;28;1358;-71
2021/09/08 10:46:27;;;;;;;;;;;;;;;22.83;54.50;101399.09;5036723;28;819;-71
2021/09/08 10:48:52;;;;;;;;;;;;;;;22.88;54.63;101391.28;5052435;28;1718;-71
2021/09/08 10:51:17;;;;;;;;;;;;;;;22.98;54.43;101397.41;5056494;28;1876;-71
2021/09/08 10:53:42;;;;;;;;;;;;;;;22.87;54.94;101395.03;5038782;28;1898;-71
2021/09/08 10:56:07;;;;;;;;;;;;;;;22.83;55.15;101390.94;5056853;28;1129;-71
2021/09/08 10:58:33;;;;;;;;;;;;;;;22.80;54.82;101378.53;5056587;28;879;-70
2021/09/08 11:00:58;;;;;;;;;;;;;;;22.90;54.62;101378.38;5056219;28;965;-71
2021/09/08 11:03:24;;;;;;;;;;;;;;;22.92;54.51;101376.34;5056127;28;1053;-71
2021/09/08 11:05:49;;;;;;;;;;;;;;;23.04;54.46;101374.16;5054641;28;1718;-71
2021/09/08 11:08:14;;;;;;;;;;;;;;;23.00;54.52;101368.19;5038026;28;1763;-70
2021/09/08 11:10:39;;;;;;;;;;;;;;;22.92;54.63;101362.78;5036392;28;966;-71
2021/09/08 11:13:04;;;;;;;;;;;;;;;23.00;54.23;101370.06;5036238;28;1976;-71
2021/09/08 11:15:29;;;;;;;;;;;;;;;23.02;54.32;101365.31;5036388;28;947;-71
2021/09/08 11:17:54;;;;;;;;;;;;;;;23.01;54.36;101360.91;5036386;28;917;-71
2021/09/08 11:20:19;;;;;;;;;;;;;;;23.04;54.19;101364.13;5036300;28;1702;-72
2021/09/08 11:22:44;;;;;;;;;;;;;;;23.06;54.22;101361.25;5048219;28;1961;-71
2021/09/08 11:25:09;;;;;;;;;;;;;;;23.13;54.00;101357.66;5058935;28;939;-71
2021/09/08 11:27:35;;;;;;;;;;;;;;;23.16;54.26;101346.47;5056486;28;1680;-71
2021/09/08 11:30:00;;;;;;;;;;;;;;;23.23;53.62;101349.38;5052894;28;1966;-71
2021/09/08 11:32:25;;;;;;;;;;;;;;;23.20;53.74;101345.13;5036289;28;1981;-70
2021/09/08 11:34:50;;;;;;;;;;;;;;;23.19;53.79;101342.56;5047110;28;1562;-71
2021/09/08 11:37:15;;;;;;;;;;;;;;;23.16;53.60;101340.16;5044796;28;1659;-71
2021/09/08 11:39:40;;;;;;;;;;;;;;;23.18;53.44;101346.28;5048573;28;1655;-71
2021/09/08 11:42:05;;;;;;;;;;;;;;;23.17;53.21;101337.28;5055248;28;1330;-70
2021/09/08 11:44:30;;;;;;;;;;;;;;;23.25;52.97;101330.16;5055084;28;780;-70
2021/09/08 11:46:56;;;;;;;;;;;;;;;23.22;53.63;101333.22;5055375;28;999;-70
2021/09/08 11:49:21;;;;;;;;;;;;;;;23.16;52.92;101321.13;5054862;28;807;-70
2021/09/08 11:51:46;;;;;;;;;;;;;;;23.30;52.59;101322.31;5055142;28;879;-70
2021/09/08 11:54:11;;;;;;;;;;;;;;;23.33;52.53;101325.56;5051374;28;1949;-70
2021/09/08 11:56:38;;;;;;;;;;;;;;;23.26;52.82;101315.53;5042356;28;1597;-70
2021/09/08 11:59:03;;;;;;;;;;;;;;;23.20;52.25;101317.91;5034874;28;1880;-70
2021/09/08 12:01:28;;;;;;;;;;;;;;;23.18;52.42;101322.66;5034872;28;918;-70
2021/09/08 12:03:53;;;;;;;;;;;;;;;23.17;52.31;101314.69;5035115;28;990;-69
2021/09/08 12:06:19;;;;;;;;;;;;;;;23.25;52.09;101317.41;5034880;28;808;-69
2021/09/08 12:08:44;;;;;;;;;;;;;;;23.36;51.83;101324.38;5034907;28;1074;-69
2021/09/08 12:11:12;;;;;;;;;;;;;;;23.33;51.34;101311.09;5034937;28;1061;-70
2021/09/08 12:13:37;;;;;;;;;;;;;;;23.40;51.53;101323.00;5046044;28;1953;-69
2021/09/08 12:16:02;;;;;;;;;;;;;;;23.32;51.33;101310.25;5039486;28;1725;-70
2021/09/08 12:18:27;;;;;;;;;;;;;;;23.44;51.27;101311.63;5054490;28;1077;-70
2021/09/08 12:20:52;;;;;;;;;;;;;;;23.51;51.03;101301.75;5054346;28;1630;-70
2021/09/08 12:23:17;;;;;;;;;;;;;;;23.63;50.86;101290.53;5052274;28;1766;-69
2021/09/08 12:25:42;;;;;;;;;;;;;;;23.64;50.85;101289.50;5039877;28;1496;-69
2021/09/08 12:28:07;;;;;;;;;;;;;;;23.61;50.46;101289.84;5034689;28;1244;-70
2021/09/08 12:30:32;;;;;;;;;;;;;;;23.67;50.63;101284.56;5046054;28;1813;-70
2021/09/08 12:32:57;;;;;;;;;;;;;;;23.70;50.52;101286.94;5054245;28;1914;-70
2021/09/08 12:35:23;;;;;;;;;;;;;;;23.63;51.12;101280.50;5050409;28;1910;-70
2021/09/08 12:37:48;;;;;;;;;;;;;;;23.63;51.11;101277.78;5034610;28;1853;-70